Time;durP1;ratioP1;P1;durP2;ratioP2;P2;SDS_P1;SDS_P2;PMS_P1;PMS_P2;Temp;Humidity;BMP_temperature;BMP_pressure;BME280_temperature;BME280_humidity;BME280_pressure;Samples;Min_cycle;Max_cycle;Signal;HPM_P1;HPM_P2
2022/05/29 00:01:21;;;;;;;19.50;4.63;;;11.10;99.90;;;;;;5072017;28;20494;-53
2022/05/29 00:03:47;;;;;;;16.02;3.30;;;11.10;99.90;;;;;;5071880;28;20048;-53
2022/05/29 00:06:14;;;;;;;13.50;3.33;;;11.10;99.90;;;;;;5071463;28;20129;-53
2022/05/29 00:08:42;;;;;;;15.13;3.75;;;11.10;99.90;;;;;;5071703;28;20083;-53
2022/05/29 00:11:11;;;;;;;11.30;2.90;;;11.10;99.90;;;;;;5071654;28;20052;-52
2022/05/29 00:13:36;;;;;;;17.52;3.72;;;11.00;99.90;;;;;;5071586;28;20049;-52
2022/05/29 00:16:03;;;;;;;15.80;3.13;;;11.10;99.90;;;;;;5071833;28;20086;-53
2022/05/29 00:18:28;;;;;;;11.73;2.97;;;11.10;99.90;;;;;;5074947;28;20395;-52
2022/05/29 00:20:56;;;;;;;14.73;3.17;;;11.10;99.90;;;;;;5075799;28;20051;-50
2022/05/29 00:23:24;;;;;;;17.38;2.83;;;11.30;99.90;;;;;;5075400;28;20041;-52
2022/05/29 00:25:52;;;;;;;13.30;3.20;;;11.20;99.90;;;;;;5075435;28;20371;-52
2022/05/29 00:28:18;;;;;;;13.05;3.28;;;11.20;99.90;;;;;;5075294;28;20091;-52
2022/05/29 00:30:45;;;;;;;13.43;3.55;;;11.10;99.90;;;;;;5075422;28;20049;-52
2022/05/29 00:33:11;;;;;;;16.70;3.90;;;10.90;99.90;;;;;;5075239;28;20052;-53
2022/05/29 00:35:39;;;;;;;17.20;4.03;;;10.90;99.90;;;;;;5075210;28;20044;-52
2022/05/29 00:38:05;;;;;;;14.43;2.83;;;10.80;99.90;;;;;;5074792;28;20052;-53
2022/05/29 00:40:43;;;;;;;11.40;3.15;;;10.80;99.90;;;;;;5075014;28;20070;-53
2022/05/29 00:43:09;;;;;;;14.20;4.00;;;10.70;99.90;;;;;;5074799;28;20491;-51
2022/05/29 00:45:56;;;;;;;13.77;4.38;;;10.70;99.90;;;;;;5075055;28;20127;-53
2022/05/29 00:48:23;;;;;;;14.40;3.15;;;10.70;99.90;;;;;;5074691;28;20170;-53
2022/05/29 00:50:52;;;;;;;10.93;2.45;;;10.80;99.90;;;;;;5074698;28;20041;-52
2022/05/29 00:53:19;;;;;;;9.93;2.90;;;10.80;99.90;;;;;;5074916;28;20049;-53
2022/05/29 00:56:00;;;;;;;23.33;4.45;;;10.80;99.90;;;;;;5074267;28;20047;-53
2022/05/29 00:58:26;;;;;;;17.98;3.72;;;10.80;99.90;;;;;;5063923;28;20072;-52
2022/05/29 01:00:55;;;;;;;12.93;2.85;;;10.70;99.90;;;;;;5072585;28;20080;-52
2022/05/29 01:03:20;;;;;;;15.45;3.17;;;10.80;99.90;;;;;;5072638;28;20045;-51
2022/05/29 01:05:46;;;;;;;10.70;2.95;;;10.80;99.90;;;;;;5073827;28;20040;-50
2022/05/29 01:08:18;;;;;;;17.33;3.17;;;10.80;99.90;;;;;;5074432;28;20047;-52
2022/05/29 01:10:50;;;;;;;8.05;3.13;;;10.80;99.90;;;;;;5074496;28;20048;-50
2022/05/29 01:13:34;;;;;;;11.80;2.90;;;10.80;99.90;;;;;;5074320;28;20052;-49
2022/05/29 01:16:35;;;;;;;12.27;3.22;;;10.80;99.90;;;;;;5074118;28;20040;-52
2022/05/29 01:19:10;;;;;;;13.35;3.22;;;10.90;99.90;;;;;;5073083;28;20609;-53
2022/05/29 01:22:08;;;;;;;13.52;3.08;;;10.80;99.90;;;;;;5074056;28;20072;-52
2022/05/29 01:25:11;;;;;;;10.88;2.55;;;10.90;99.90;;;;;;5073346;28;20041;-51
2022/05/29 01:28:07;;;;;;;12.85;3.28;;;10.80;99.90;;;;;;5074278;28;20048;-52
2022/05/29 01:30:42;;;;;;;10.27;2.92;;;10.80;99.90;;;;;;5073864;28;20056;-50
2022/05/29 01:33:22;;;;;;;13.35;3.13;;;10.70;99.90;;;;;;5073934;28;20405;-52
2022/05/29 01:36:11;;;;;;;18.67;3.70;;;10.80;99.90;;;;;;5073966;28;20487;-51
2022/05/29 01:38:40;;;;;;;14.48;3.50;;;10.80;99.90;;;;;;5073716;28;20062;-52
2022/05/29 01:41:12;;;;;;;;;;;10.80;99.90;;;;;;5074328;28;20052;-50
2022/05/29 01:43:44;;;;;;;13.50;3.50;;;10.80;99.90;;;;;;5074063;28;19920;-52
2022/05/29 01:46:32;;;;;;;12.75;3.60;;;10.90;99.90;;;;;;5074023;28;20402;-52
2022/05/29 01:49:19;;;;;;;13.73;3.40;;;10.90;99.90;;;;;;5073655;28;20495;-52
2022/05/29 01:51:55;;;;;;;14.98;3.22;;;10.90;99.90;;;;;;5073565;28;20063;-49
2022/05/29 01:54:36;;;;;;;14.52;3.75;;;10.90;99.90;;;;;;5073614;28;20047;-53
2022/05/29 01:57:22;;;;;;;17.67;2.88;;;11.00;99.90;;;;;;5073882;28;20084;-53
2022/05/29 02:00:05;;;;;;;18.48;3.28;;;10.90;99.90;;;;;;5073481;28;20060;-53
2022/05/29 02:02:39;;;;;;;12.02;2.78;;;11.00;99.90;;;;;;5073535;28;20044;-52
2022/05/29 02:05:09;;;;;;;14.80;2.67;;;11.00;99.90;;;;;;5055750;28;20569;-52
2022/05/29 02:07:50;;;;;;;13.05;3.00;;;11.00;99.90;;;;;;5072989;28;20106;-52
2022/05/29 02:10:41;;;;;;;9.63;2.30;;;11.00;99.90;;;;;;5055468;28;20102;-51
2022/05/29 02:13:10;;;;;;;10.80;3.30;;;11.00;99.90;;;;;;5073518;28;20028;-52
2022/05/29 02:15:44;;;;;;;12.77;2.53;;;11.00;99.90;;;;;;5073463;28;20761;-52
2022/05/29 02:18:17;;;;;;;9.13;2.35;;;11.00;99.90;;;;;;5073109;28;20044;-53
2022/05/29 02:20:46;;;;;;;11.13;2.55;;;11.00;99.90;;;;;;5073143;28;20151;-51
2022/05/29 02:23:36;;;;;;;13.60;3.70;;;11.00;99.90;;;;;;5073179;28;20048;-50
2022/05/29 02:26:04;;;;;;;18.17;3.95;;;11.00;99.90;;;;;;5073135;28;20052;-53
2022/05/29 02:28:38;;;;;;;13.48;2.60;;;11.00;99.90;;;;;;5058844;28;20037;-53
2022/05/29 02:31:15;;;;;;;10.02;2.83;;;11.00;99.90;;;;;;5072891;28;20044;-52
2022/05/29 02:33:48;;;;;;;18.02;3.60;;;11.10;99.90;;;;;;5059951;28;20516;-53
2022/05/29 02:36:35;;;;;;;13.77;3.45;;;11.00;99.90;;;;;;5073352;28;20044;-52
2022/05/29 02:39:19;;;;;;;13.75;3.15;;;11.00;99.90;;;;;;5073134;28;20052;-52
2022/05/29 02:42:14;;;;;;;11.98;2.83;;;11.00;99.90;;;;;;5072549;28;20036;-52
2022/05/29 02:44:55;;;;;;;12.35;2.50;;;11.00;99.90;;;;;;5073037;28;20055;-53
2022/05/29 02:47:50;;;;;;;13.40;3.10;;;11.00;99.90;;;;;;5072647;28;20090;-52
2022/05/29 02:50:45;;;;;;;13.73;2.85;;;11.00;99.90;;;;;;5072897;28;20079;-52
2022/05/29 02:53:13;;;;;;;12.27;2.58;;;10.90;99.90;;;;;;5061995;28;20403;-52
2022/05/29 02:55:44;;;;;;;11.95;2.58;;;10.90;99.90;;;;;;5072084;28;20497;-52
2022/05/29 02:58:19;;;;;;;12.68;2.90;;;10.90;99.90;;;;;;5070279;28;20123;-52
2022/05/29 03:01:12;;;;;;;10.88;2.08;;;10.80;99.90;;;;;;5072544;28;20123;-52
2022/05/29 03:04:04;;;;;;;15.00;2.40;;;10.80;99.90;;;;;;4990975;28;20125;-51
2022/05/29 03:06:51;;;;;;;12.52;2.53;;;10.80;99.90;;;;;;4990537;28;20401;-52
2022/05/29 03:09:46;;;;;;;15.85;2.78;;;10.70;99.90;;;;;;4990787;28;20046;-53
2022/05/29 03:12:45;;;;;;;14.20;3.13;;;10.70;99.90;;;;;;4990937;28;20054;-52
2022/05/29 03:15:25;;;;;;;14.10;3.17;;;10.70;99.90;;;;;;4979047;28;20046;-52
2022/05/29 03:18:27;;;;;;;13.00;3.10;;;10.80;99.90;;;;;;4990539;28;20054;-52
2022/05/29 03:21:21;;;;;;;11.00;3.05;;;10.80;99.90;;;;;;4990626;28;20077;-52
2022/05/29 03:24:10;;;;;;;10.48;2.47;;;10.80;99.90;;;;;;4974424;28;20049;-53
2022/05/29 03:27:07;;;;;;;12.73;3.22;;;10.80;99.90;;;;;;4978949;28;20039;-53
2022/05/29 03:29:41;;;;;;;14.10;3.90;;;10.80;99.90;;;;;;4990452;28;20115;-52
2022/05/29 03:32:08;;;;;;;13.13;3.00;;;10.90;99.90;;;;;;4980134;28;20058;-52
2022/05/29 03:34:34;;;;;;;12.63;3.15;;;10.80;99.90;;;;;;4973850;28;20050;-52
2022/05/29 03:36:59;;;;;;;9.68;2.80;;;10.90;99.90;;;;;;4990566;28;20497;-52
2022/05/29 03:39:25;;;;;;;10.48;2.83;;;10.80;99.90;;;;;;4990217;28;20480;-51
2022/05/29 03:41:53;;;;;;;7.15;2.17;;;10.90;99.90;;;;;;5051978;28;20045;-53
2022/05/29 03:44:21;;;;;;;8.55;2.22;;;10.80;99.90;;;;;;5051981;28;20075;-49
2022/05/29 03:46:47;;;;;;;10.73;2.10;;;10.90;99.90;;;;;;5051756;28;20041;-52
2022/05/29 03:49:15;;;;;;;9.77;1.70;;;10.90;99.90;;;;;;5051779;28;20057;-51
2022/05/29 03:51:41;;;;;;;11.52;2.08;;;10.80;99.90;;;;;;5051204;28;20045;-52
2022/05/29 03:54:08;;;;;;;7.82;1.80;;;10.90;99.90;;;;;;5051831;28;20037;-53
2022/05/29 03:56:34;;;;;;;11.15;2.08;;;10.90;99.90;;;;;;5033557;28;20057;-52
2022/05/29 03:59:00;;;;;;;11.65;2.17;;;10.90;99.90;;;;;;5051675;28;20052;-51
2022/05/29 04:01:26;;;;;;;8.57;2.28;;;10.90;99.90;;;;;;5051579;28;20402;-53
2022/05/29 04:03:55;;;;;;;8.93;1.90;;;10.90;99.90;;;;;;5051792;28;20131;-53
2022/05/29 04:06:22;;;;;;;;;;;10.90;99.90;;;;;;5052837;28;20044;-52
2022/05/29 04:14:17;;;;;;;8.30;2.65;;;10.90;99.90;;;;;;5058621;28;20044;-53
2022/05/29 04:16:42;;;;;;;15.35;2.40;;;10.90;99.90;;;;;;5071561;28;20063;-51
2022/05/29 04:19:08;;;;;;;11.80;2.95;;;10.90;99.90;;;;;;5071526;28;20044;-52
2022/05/29 04:21:34;;;;;;;17.65;2.72;;;10.90;99.90;;;;;;5071561;28;20036;-52
2022/05/29 04:24:00;;;;;;;13.93;2.50;;;11.00;99.90;;;;;;5071544;28;20045;-52
2022/05/29 04:26:25;;;;;;;18.50;2.25;;;10.90;99.90;;;;;;5071326;28;20120;-52
2022/05/29 04:28:51;;;;;;;15.20;2.95;;;11.00;99.90;;;;;;5071571;28;20406;-52
2022/05/29 04:31:17;;;;;;;15.27;3.42;;;11.00;99.90;;;;;;5071527;28;20048;-52
2022/05/29 04:33:42;;;;;;;18.20;2.65;;;11.00;99.90;;;;;;5071440;28;20578;-52
2022/05/29 04:36:08;;;;;;;14.45;2.65;;;10.90;99.90;;;;;;5071324;28;20040;-53
2022/05/29 04:38:33;;;;;;;16.65;3.30;;;10.90;99.90;;;;;;5071423;28;20056;-51
2022/05/29 04:41:06;;;;;;;15.63;2.67;;;10.90;99.90;;;;;;5071268;28;20109;-52
2022/05/29 04:43:32;;;;;;;10.93;2.88;;;10.80;99.90;;;;;;5071391;28;20053;-52
2022/05/29 04:45:57;;;;;;;15.43;3.30;;;10.80;99.90;;;;;;5071155;28;20047;-51
2022/05/29 04:48:23;;;;;;;15.80;3.60;;;10.80;99.90;;;;;;5071283;28;20479;-53
2022/05/29 04:50:55;;;;;;;14.95;3.05;;;10.80;99.90;;;;;;5071119;28;20099;-53
2022/05/29 04:53:20;;;;;;;17.20;3.67;;;10.70;99.90;;;;;;5071415;28;20125;-52
2022/05/29 04:55:46;;;;;;;20.40;3.10;;;10.70;99.90;;;;;;5071213;28;20123;-52
2022/05/29 04:58:11;;;;;;;20.77;3.72;;;10.80;99.90;;;;;;5071297;28;20041;-51
2022/05/29 05:00:37;;;;;;;13.98;3.35;;;10.80;99.90;;;;;;5071148;28;20479;-53
2022/05/29 05:03:03;;;;;;;17.75;2.97;;;10.80;99.90;;;;;;5070982;28;20048;-53
2022/05/29 05:05:29;;;;;;;15.45;2.97;;;10.80;99.90;;;;;;5074134;28;20071;-51
2022/05/29 05:07:55;;;;;;;18.17;3.00;;;10.90;99.90;;;;;;5074312;28;20045;-50
2022/05/29 05:10:20;;;;;;;13.50;3.67;;;10.90;99.90;;;;;;5074571;28;20055;-52
2022/05/29 05:12:46;;;;;;;13.73;3.83;;;11.00;99.90;;;;;;5074407;28;20412;-52
2022/05/29 05:15:15;;;;;;;14.95;2.80;;;11.00;99.90;;;;;;5074252;28;20483;-53
2022/05/29 05:17:41;;;;;;;;;;;11.00;99.90;;;;;;5074857;28;20067;-52
2022/05/29 05:20:08;;;;;;;14.57;3.25;;;11.00;99.90;;;;;;5074438;28;20003;-52
2022/05/29 05:22:34;;;;;;;16.45;3.15;;;11.00;99.90;;;;;;5056462;28;20446;-51
2022/05/29 05:25:01;;;;;;;13.82;3.13;;;11.10;99.90;;;;;;5074176;28;20534;-53
2022/05/29 05:27:26;;;;;;;15.65;2.90;;;11.10;99.90;;;;;;5073797;28;20487;-52
2022/05/29 05:29:52;;;;;;;14.65;2.63;;;11.20;99.90;;;;;;5074111;28;20044;-53
2022/05/29 05:32:18;;;;;;;13.88;2.90;;;11.20;99.90;;;;;;5073144;28;20123;-52
2022/05/29 05:34:43;;;;;;;13.32;3.10;;;11.10;99.90;;;;;;5074291;28;20052;-52
2022/05/29 05:37:10;;;;;;;11.93;2.95;;;11.00;99.90;;;;;;5074000;28;20090;-52
2022/05/29 05:39:35;;;;;;;15.35;3.33;;;10.90;99.90;;;;;;5073722;28;20051;-51
2022/05/29 05:42:01;;;;;;;17.10;3.50;;;10.90;99.90;;;;;;5073744;28;20040;-52
2022/05/29 05:44:27;;;;;;;14.80;3.10;;;10.90;99.90;;;;;;5073726;28;20071;-53
2022/05/29 05:46:53;;;;;;;17.83;3.25;;;10.90;99.90;;;;;;5073592;28;20049;-53
2022/05/29 05:49:21;;;;;;;18.98;3.38;;;10.90;99.90;;;;;;5073446;28;20056;-53
2022/05/29 05:51:47;;;;;;;17.27;3.42;;;10.90;99.90;;;;;;5073561;28;20136;-53
2022/05/29 05:54:14;;;;;;;21.90;3.67;;;11.00;99.90;;;;;;5073670;28;20418;-53
2022/05/29 05:56:44;;;;;;;11.45;3.15;;;11.10;99.90;;;;;;5073496;28;20044;-52
2022/05/29 05:59:10;;;;;;;15.27;3.22;;;11.10;99.90;;;;;;5073545;28;20490;-52
2022/05/29 06:01:37;;;;;;;15.98;2.95;;;11.10;99.90;;;;;;5073345;28;20036;-53
2022/05/29 06:04:03;;;;;;;20.40;4.88;;;11.10;99.90;;;;;;5073534;28;20052;-53
2022/05/29 06:06:29;;;;;;;10.23;2.40;;;11.20;99.90;;;;;;5073259;28;20078;-51
2022/05/29 06:08:56;;;;;;;14.05;2.85;;;11.20;99.90;;;;;;5073353;28;20414;-53
2022/05/29 06:11:26;;;;;;;14.77;3.38;;;11.30;99.90;;;;;;5072978;28;20049;-52
2022/05/29 06:13:52;;;;;;;13.52;2.65;;;11.30;99.90;;;;;;5073420;28;20048;-53
2022/05/29 06:16:18;;;;;;;11.65;2.53;;;11.30;99.90;;;;;;5072559;28;20114;-53
2022/05/29 06:18:44;;;;;;;14.77;3.55;;;11.30;99.90;;;;;;5073321;28;20487;-53
2022/05/29 06:21:10;;;;;;;11.38;2.22;;;11.30;99.90;;;;;;5072914;28;20391;-51
2022/05/29 06:23:36;;;;;;;16.80;2.83;;;11.30;99.90;;;;;;5073123;28;20040;-52
2022/05/29 06:26:07;;;;;;;18.02;2.45;;;11.40;99.90;;;;;;5073145;28;20098;-53
2022/05/29 06:28:33;;;;;;;11.90;2.72;;;11.40;99.90;;;;;;5072771;28;20495;-53
2022/05/29 06:30:59;;;;;;;12.25;3.20;;;11.40;99.90;;;;;;5072822;28;20052;-52
2022/05/29 06:33:29;;;;;;;11.52;2.30;;;11.50;99.90;;;;;;5071492;28;20452;-52
2022/05/29 06:36:05;;;;;;;14.13;2.95;;;11.50;99.90;;;;;;5073099;28;20056;-52
2022/05/29 06:38:30;;;;;;;8.38;2.08;;;11.50;99.90;;;;;;5072507;28;20059;-52
2022/05/29 06:40:56;;;;;;;11.63;1.98;;;11.60;99.90;;;;;;5072872;28;20044;-53
2022/05/29 06:43:21;;;;;;;12.18;2.67;;;11.50;99.90;;;;;;5072670;28;20045;-53
2022/05/29 06:45:47;;;;;;;7.03;2.17;;;11.50;99.90;;;;;;5072874;28;20091;-52
2022/05/29 06:48:14;;;;;;;11.95;2.53;;;11.40;99.90;;;;;;5072757;28;20098;-52
2022/05/29 06:50:40;;;;;;;11.57;3.42;;;11.40;99.90;;;;;;5072845;28;20037;-52
2022/05/29 06:53:07;;;;;;;8.93;2.05;;;11.40;99.90;;;;;;5072392;28;20051;-53
2022/05/29 06:55:33;;;;;;;10.27;2.10;;;11.50;99.90;;;;;;5072332;28;20529;-52
2022/05/29 06:57:58;;;;;;;10.52;2.35;;;11.50;99.90;;;;;;5072552;28;20053;-52
2022/05/29 07:08:43;;;;;;;11.68;2.83;;;11.60;99.90;;;;;;5072272;28;20052;-53
2022/05/29 07:11:18;;;;;;;10.90;2.08;;;11.60;99.90;;;;;;5072531;28;20541;-52
2022/05/29 07:13:44;;;;;;;10.43;2.80;;;11.60;99.90;;;;;;5072143;28;20056;-52
2022/05/29 07:16:09;;;;;;;13.93;2.33;;;11.60;99.90;;;;;;5072300;28;20063;-53
2022/05/29 07:18:36;;;;;;;7.38;1.92;;;11.60;99.90;;;;;;5053233;28;20487;-50
2022/05/29 07:21:03;;;;;;;9.40;1.33;;;11.50;99.90;;;;;;5072271;28;20083;-51
2022/05/29 07:23:30;;;;;;;10.65;2.05;;;11.50;99.90;;;;;;5054462;28;20087;-53
2022/05/29 07:25:56;;;;;;;8.02;1.73;;;11.60;99.90;;;;;;5053214;28;20051;-52
2022/05/29 07:28:23;;;;;;;10.35;2.25;;;11.60;99.90;;;;;;5071803;28;20059;-52
2022/05/29 07:30:49;;;;;;;8.13;1.90;;;11.60;99.90;;;;;;5053510;28;20406;-53
2022/05/29 07:33:15;;;;;;;14.55;2.55;;;11.70;99.90;;;;;;5071884;28;20048;-53
2022/05/29 07:35:41;;;;;;;5.47;1.40;;;11.70;99.90;;;;;;5071638;28;20044;-53
2022/05/29 07:38:07;;;;;;;7.05;2.05;;;11.80;99.90;;;;;;5071682;28;20127;-53
2022/05/29 07:40:32;;;;;;;6.70;1.98;;;11.80;99.90;;;;;;5071676;28;20499;-53
2022/05/29 07:45:43;;;;;;;6.13;1.30;;;11.90;99.90;;;;;;5072040;28;20044;-51
2022/05/29 07:48:08;;;;;;;5.15;1.27;;;12.00;99.90;;;;;;5071956;28;20521;-51
2022/05/29 07:50:34;;;;;;;3.88;1.02;;;12.00;99.90;;;;;;5074545;28;20501;-53
2022/05/29 07:53:00;;;;;;;3.70;1.00;;;12.20;99.90;;;;;;5071373;28;20044;-53
2022/05/29 07:55:25;;;;;;;5.18;1.15;;;12.10;99.90;;;;;;5071945;28;20036;-53
2022/05/29 07:57:51;;;;;;;6.88;1.30;;;12.10;99.90;;;;;;5071160;28;20483;-52
2022/05/29 08:00:19;;;;;;;7.90;1.65;;;12.10;99.90;;;;;;5070682;28;20041;-52
2022/05/29 08:02:45;;;;;;;11.80;1.25;;;12.00;99.90;;;;;;5071931;28;20045;-53
2022/05/29 08:05:13;;;;;;;14.35;1.98;;;12.00;99.90;;;;;;5071378;28;20159;-52
2022/05/29 08:07:40;;;;;;;11.85;3.38;;;12.00;99.90;;;;;;5071680;28;20045;-52
2022/05/29 08:10:07;;;;;;;7.95;1.38;;;11.90;99.90;;;;;;5071657;28;20048;-53
2022/05/29 08:12:33;;;;;;;9.23;1.30;;;11.90;99.90;;;;;;5071607;28;20048;-51
2022/05/29 08:14:59;;;;;;;5.60;1.60;;;12.00;99.90;;;;;;5071558;28;20491;-53
2022/05/29 08:17:24;;;;;;;9.20;1.73;;;12.10;99.90;;;;;;5071525;28;20047;-53
2022/05/29 08:19:50;;;;;;;6.45;1.30;;;12.20;99.90;;;;;;5053468;28;20406;-52
2022/05/29 08:22:16;;;;;;;5.38;1.25;;;12.30;99.90;;;;;;5070682;28;20394;-53
2022/05/29 08:30:41;;;;;;;8.30;1.67;;;12.20;99.90;;;;;;5071581;28;20048;-53
2022/05/29 08:33:18;;;;;;;8.57;1.73;;;12.10;99.90;;;;;;5071178;28;20380;-52
2022/05/29 08:35:46;;;;;;;11.55;2.10;;;12.10;99.90;;;;;;5072293;28;20375;-53
2022/05/29 08:38:14;;;;;;;12.77;3.20;;;12.10;99.90;;;;;;5060538;28;20036;-52
2022/05/29 08:40:46;;;;;;;9.13;1.73;;;12.00;99.90;;;;;;5075120;28;20155;-53
2022/05/29 08:43:31;;;;;;;8.55;2.45;;;12.00;99.90;;;;;;5074657;28;20037;-53
2022/05/29 08:46:03;;;;;;;15.35;2.83;;;12.00;99.90;;;;;;5074497;28;20430;-50
2022/05/29 08:48:29;;;;;;;14.18;1.83;;;11.90;99.90;;;;;;5073777;28;20123;-52
2022/05/29 08:51:19;;;;;;;9.10;2.00;;;11.80;99.90;;;;;;5074243;28;20044;-51
2022/05/29 08:53:54;;;;;;;9.90;2.03;;;11.90;99.90;;;;;;5075820;28;20059;-52
2022/05/29 08:57:01;;;;;;;8.93;1.90;;;11.90;99.90;;;;;;5071389;28;20051;-53
2022/05/29 08:59:48;;;;;;;7.63;1.58;;;11.90;99.90;;;;;;5058096;28;20449;-53
2022/05/29 09:02:36;;;;;;;9.60;2.47;;;12.00;99.90;;;;;;5073993;28;20552;-52
2022/05/29 09:05:09;;;;;;;7.40;1.40;;;11.80;99.90;;;;;;4975885;28;20123;-53
2022/05/29 09:07:38;;;;;;;5.95;1.35;;;11.90;99.90;;;;;;4991190;28;20405;-52
2022/05/29 09:10:16;;;;;;;7.20;1.65;;;11.90;99.90;;;;;;4992428;28;20766;-53
2022/05/29 09:12:52;;;;;;;6.53;1.20;;;12.00;99.90;;;;;;4992147;28;20096;-52
2022/05/29 09:15:41;;;;;;;10.95;2.13;;;12.10;99.90;;;;;;4992617;28;20042;-53
2022/05/29 09:18:13;;;;;;;4.65;1.63;;;12.20;99.90;;;;;;4992081;28;20058;-53
2022/05/29 09:20:57;;;;;;;6.43;1.55;;;12.40;99.90;;;;;;4968517;28;20053;-53
2022/05/29 09:23:29;;;;;;;8.70;1.67;;;12.50;99.90;;;;;;4986294;28;20046;-53
2022/05/29 09:25:56;;;;;;;11.48;1.75;;;12.60;99.90;;;;;;4991342;28;20162;-52
2022/05/29 09:28:36;;;;;;;10.73;1.48;;;12.60;99.90;;;;;;4992647;28;20223;-53
2022/05/29 09:31:17;;;;;;;8.18;1.75;;;12.50;99.90;;;;;;4991450;28;20042;-53
2022/05/29 09:33:43;;;;;;;7.95;1.70;;;12.40;99.90;;;;;;4992254;28;20594;-52
2022/05/29 09:36:08;;;;;;;6.03;1.65;;;12.50;99.90;;;;;;4959192;28;20046;-53
2022/05/29 09:39:17;;;;;;;9.85;2.55;;;12.50;99.90;;;;;;4985082;28;20086;-52
2022/05/29 09:41:52;;;;;;;6.70;2.30;;;12.30;99.90;;;;;;4963757;28;20124;-51
2022/05/29 09:44:21;;;;;;;10.50;2.20;;;12.30;99.90;;;;;;5008376;28;20046;-53
2022/05/29 09:46:52;;;;;;;8.90;1.73;;;12.30;99.90;;;;;;5010198;28;20129;-52
2022/05/29 09:49:41;;;;;;;5.13;1.58;;;12.40;99.90;;;;;;5007557;28;20065;-52
2022/05/29 09:52:30;;;;;;;12.43;1.60;;;12.60;99.90;;;;;;5009950;28;20054;-51
2022/05/29 09:55:05;;;;;;;6.10;1.27;;;12.50;99.90;;;;;;5009990;28;20046;-53
2022/05/29 09:57:36;;;;;;;6.22;1.65;;;12.60;99.90;;;;;;5009354;28;20069;-50
2022/05/29 10:00:08;;;;;;;11.52;1.58;;;12.70;99.90;;;;;;5009807;28;20603;-51
2022/05/29 10:02:39;;;;;;;5.63;1.50;;;12.70;99.90;;;;;;4991671;28;20094;-53
2022/05/29 10:05:21;;;;;;;7.70;1.55;;;12.80;99.90;;;;;;5008691;28;20046;-53
2022/05/29 10:07:47;;;;;;;8.02;1.40;;;12.90;99.90;;;;;;5010998;28;20428;-52
2022/05/29 10:10:34;;;;;;;9.27;1.98;;;12.90;99.90;;;;;;5011052;28;20061;-51
2022/05/29 10:13:01;;;;;;;14.30;2.80;;;13.00;99.90;;;;;;5011376;28;20452;-52
2022/05/29 10:15:26;;;;;;;8.35;1.63;;;13.00;99.90;;;;;;5035971;28;20080;-51
2022/05/29 10:18:01;;;;;;;11.40;2.45;;;12.90;99.90;;;;;;5072752;28;20446;-53
2022/05/29 10:20:42;;;;;;;6.15;1.80;;;13.00;99.90;;;;;;5072436;28;20491;-53
2022/05/29 10:23:28;;;;;;;7.05;1.40;;;12.90;99.90;;;;;;5072636;28;20048;-53
2022/05/29 10:25:58;;;;;;;5.82;1.50;;;12.90;99.90;;;;;;5071739;28;20045;-52
2022/05/29 10:28:31;;;;;;;9.52;1.50;;;12.90;99.90;;;;;;5072803;28;20053;-52
2022/05/29 10:31:03;;;;;;;5.55;1.48;;;12.90;99.90;;;;;;5072522;28;20483;-53
2022/05/29 10:33:31;;;;;;;4.10;1.38;;;12.90;99.90;;;;;;5073047;28;20422;-53
2022/05/29 10:36:08;;;;;;;9.23;2.47;;;12.90;99.90;;;;;;5072694;28;20048;-52
2022/05/29 10:38:34;;;;;;;6.82;1.77;;;13.10;99.90;;;;;;5072406;28;20410;-51
2022/05/29 10:41:03;;;;;;;6.93;1.40;;;13.20;99.90;;;;;;5072458;28;20453;-49
2022/05/29 10:43:51;;;;;;;5.80;1.65;;;13.40;99.90;;;;;;5072629;28;20428;-53
2022/05/29 10:46:18;;;;;;;6.22;1.30;;;13.50;99.90;;;;;;5072485;28;20041;-53
2022/05/29 10:49:00;;;;;;;7.05;1.45;;;13.50;99.90;;;;;;5072325;28;20193;-52
2022/05/29 10:52:01;;;;;;;10.50;1.80;;;13.30;99.90;;;;;;5071954;28;20048;-51
2022/05/29 10:54:45;;;;;;;;;;;13.10;99.90;;;;;;5010827;28;20050;-50
2022/05/29 10:57:19;;;;;;;5.20;1.65;;;12.90;99.90;;;;;;5003702;28;19963;-50
2022/05/29 11:00:09;;;;;;;7.57;1.20;;;12.90;99.90;;;;;;4991819;28;20108;-53
2022/05/29 11:05:33;;;;;;;10.20;1.83;;;12.70;99.90;;;;;;4994643;28;20042;-51
2022/05/29 11:08:19;;;;;;;7.70;1.27;;;12.40;99.90;;;;;;4981657;28;20054;-52
2022/05/29 11:11:21;;;;;;;9.63;2.13;;;12.40;99.90;;;;;;4950936;28;20057;-52
2022/05/29 11:14:05;;;;;;;8.68;1.77;;;12.70;99.90;;;;;;4952632;28;20054;-52
2022/05/29 11:17:00;;;;;;;14.93;2.00;;;13.00;99.90;;;;;;4952709;28;20086;-52
2022/05/29 11:19:34;;;;;;;10.27;2.40;;;12.90;99.90;;;;;;4951416;29;20043;-51
2022/05/29 11:22:39;;;;;;;13.00;3.20;;;12.90;99.90;;;;;;4953436;28;20051;-52
2022/05/29 11:25:25;;;;;;;11.15;2.00;;;13.00;99.90;;;;;;4951844;29;20082;-53
2022/05/29 11:28:14;;;;;;;13.43;2.03;;;13.00;99.90;;;;;;4952565;28;20376;-53
2022/05/29 11:30:58;;;;;;;8.80;1.88;;;13.20;99.90;;;;;;4956138;28;20043;-52
2022/05/29 11:33:45;;;;;;;11.65;2.33;;;13.20;99.90;;;;;;4970606;28;20508;-52
2022/05/29 11:36:24;;;;;;;10.10;1.80;;;13.20;99.90;;;;;;4970180;28;20054;-52
2022/05/29 11:39:08;;;;;;;14.03;3.50;;;13.20;99.90;;;;;;4970809;28;20051;-52
2022/05/29 11:41:40;;;;;;;12.15;2.17;;;13.20;99.90;;;;;;4970824;28;20039;-53
2022/05/29 11:44:22;;;;;;;10.00;1.83;;;13.20;99.90;;;;;;4968450;28;20442;-52
2022/05/29 11:53:02;;;;;;;10.40;2.10;;;13.40;99.90;;;;;;5071401;28;20055;-52
2022/05/29 11:55:32;;;;;;;9.65;1.40;;;13.50;99.90;;;;;;5009658;28;20054;-52
2022/05/29 11:58:11;;;;;;;8.50;1.70;;;13.50;99.90;;;;;;5009625;28;20053;-52
2022/05/29 12:00:43;;;;;;;12.00;1.98;;;13.50;99.90;;;;;;5009824;28;20072;-51
2022/05/29 12:03:57;;;;;;;13.57;2.55;;;13.50;99.90;;;;;;5009574;28;20038;-52
2022/05/29 12:06:45;;;;;;;7.82;1.60;;;13.40;99.90;;;;;;4951115;28;20051;-52
2022/05/29 12:09:13;;;;;;;11.00;1.77;;;13.30;99.90;;;;;;4938926;29;20448;-52
2022/05/29 12:11:44;;;;;;;8.35;2.40;;;13.10;99.90;;;;;;4951476;29;20541;-53
2022/05/29 12:14:45;;;;;;;13.10;1.63;;;12.70;99.90;;;;;;4940801;29;20047;-52
2022/05/29 12:17:23;;;;;;;8.55;1.73;;;12.60;99.90;;;;;;4916854;29;20056;-52
2022/05/29 12:20:33;;;;;;;7.20;1.17;;;12.60;99.90;;;;;;4916839;29;20448;-52
2022/05/29 12:23:04;;;;;;;7.05;2.00;;;12.60;99.90;;;;;;4917062;29;20051;-53
2022/05/29 12:25:48;;;;;;;11.32;1.55;;;12.70;99.90;;;;;;4916729;29;20084;-52
2022/05/29 12:28:27;;;;;;;10.45;1.75;;;12.70;99.90;;;;;;4916694;29;20521;-53
2022/05/29 12:30:54;;;;;;;9.93;1.73;;;12.70;99.90;;;;;;4917056;29;20507;-53
2022/05/29 12:33:23;;;;;;;8.02;1.58;;;12.80;99.90;;;;;;4931306;29;20490;-52
2022/05/29 12:36:00;;;;;;;10.23;2.72;;;13.00;99.90;;;;;;4935249;29;20040;-52
2022/05/29 12:38:47;;;;;;;8.30;1.90;;;13.20;99.90;;;;;;4934601;29;20126;-53
2022/05/29 12:41:20;;;;;;;8.70;1.95;;;13.30;99.90;;;;;;4954686;28;20086;-53
2022/05/29 12:43:54;;;;;;;8.70;1.92;;;13.50;99.90;;;;;;4976369;28;20053;-53
2022/05/29 12:46:47;;;;;;;10.75;2.20;;;13.80;99.90;;;;;;4996600;28;20046;-53
2022/05/29 12:49:45;;;;;;;7.60;1.77;;;13.90;99.90;;;;;;4995305;28;20503;-51
2022/05/29 12:52:22;;;;;;;10.65;1.85;;;13.80;99.90;;;;;;4935214;29;20043;-53
2022/05/29 12:55:02;;;;;;;12.93;2.42;;;14.00;99.90;;;;;;4989049;28;20047;-53
2022/05/29 12:57:41;;;;;;;21.15;2.22;;;13.90;99.90;;;;;;4992428;28;20084;-52
2022/05/29 13:00:48;;;;;;;9.55;1.63;;;14.00;99.90;;;;;;4990896;28;20209;-52
2022/05/29 13:03:35;;;;;;;10.77;1.58;;;13.90;99.90;;;;;;4990595;28;20146;-50
2022/05/29 13:06:15;;;;;;;9.15;1.40;;;14.00;99.90;;;;;;4990570;28;20058;-53
2022/05/29 13:08:49;;;;;;;10.05;1.25;;;14.00;99.90;;;;;;4978609;28;20555;-53
2022/05/29 13:11:31;;;;;;;9.70;2.20;;;14.00;99.90;;;;;;4973090;28;20057;-52
2022/05/29 13:14:03;;;;;;;12.68;1.45;;;14.10;99.90;;;;;;4978678;28;20070;-53
2022/05/29 13:16:38;;;;;;;8.65;1.48;;;14.00;99.90;;;;;;4971463;28;20073;-53
2022/05/29 13:19:17;;;;;;;9.07;2.22;;;14.00;99.90;;;;;;4955832;28;20049;-52
2022/05/29 13:21:58;;;;;;;16.30;1.73;;;14.00;99.90;;;;;;4976080;28;20057;-52
2022/05/29 13:24:28;;;;;;;10.63;1.95;;;13.90;99.90;;;;;;4971787;28;20123;-52
2022/05/29 13:27:16;;;;;;;9.93;1.70;;;14.10;99.90;;;;;;4973467;28;20862;-52
2022/05/29 13:29:54;;;;;;;11.82;1.70;;;14.10;99.90;;;;;;5050811;28;20083;-51
2022/05/29 13:32:24;;;;;;;8.82;1.95;;;14.00;99.90;;;;;;5049688;28;20376;-50
2022/05/29 13:34:53;;;;;;;12.68;2.00;;;13.80;99.90;;;;;;5050713;28;20095;-51
2022/05/29 13:37:45;;;;;;;11.38;2.10;;;13.70;99.90;;;;;;5050076;28;20052;-52
2022/05/29 13:40:29;;;;;;;8.40;1.98;;;13.60;99.90;;;;;;5053342;28;20397;-52
2022/05/29 13:43:15;;;;;;;8.45;1.63;;;13.50;99.90;;;;;;5051629;28;20083;-52
2022/05/29 13:45:44;;;;;;;6.85;1.63;;;13.40;99.90;;;;;;5051710;28;20048;-52
2022/05/29 13:48:18;;;;;;;12.07;2.28;;;13.50;99.90;;;;;;5052816;28;20044;-53